FFT3550 KSFO-KPHX
Flight info
| Callsign | FFT3550 |
|---|---|
| Flight time | N/A |
| Altitude | 39000 |
| Route | WESLA5 KAYEX LOSHN BOILE BLH HYDRR1 |
| Aircraft | A20N/M-SDE2E3FGHIRWXY/LB1 |
Departure
| Time | 2026-05-05 21:11 |
|---|---|
| Airport | San Francisco International Airport (KSFO) |
Arrival
| Time | N/A |
|---|---|
| Airport | Phoenix Sky Harbor International Airport (KPHX) |
| Time | Latitude | Longitude | Altitude | Speed | Heading |
|---|---|---|---|---|---|
| 2026-05-05 20:49 | 37.61200 | -122.38435 | 19 ft | 0 kts | 297° |
| 2026-05-05 21:03 | 37.61197 | -122.38427 | 19 ft | 4 kts | 301° |
| 2026-05-05 21:03 | 37.61185 | -122.38398 | 19 ft | 4 kts | 309° |
| 2026-05-05 21:03 | 37.61165 | -122.38379 | 19 ft | 4 kts | 357° |
| 2026-05-05 21:03 | 37.61151 | -122.38380 | 19 ft | 1 kts | 13° |
| 2026-05-05 21:04 | 37.61150 | -122.38381 | 19 ft | 0 kts | 13° |
| 2026-05-05 21:05 | 37.61153 | -122.38380 | 19 ft | 2 kts | 13° |
| 2026-05-05 21:05 | 37.61186 | -122.38364 | 20 ft | 9 kts | 28° |
| 2026-05-05 21:05 | 37.61237 | -122.38271 | 19 ft | 16 kts | 60° |
| 2026-05-05 21:05 | 37.61302 | -122.38198 | 19 ft | 14 kts | 27° |
| 2026-05-05 21:06 | 37.61404 | -122.38140 | 19 ft | 18 kts | 27° |
| 2026-05-05 21:06 | 37.61521 | -122.38063 | 19 ft | 20 kts | 28° |
| 2026-05-05 21:06 | 37.61650 | -122.37976 | 19 ft | 19 kts | 30° |
| 2026-05-05 21:06 | 37.61751 | -122.37880 | 19 ft | 19 kts | 43° |
| 2026-05-05 21:07 | 37.61787 | -122.37732 | 20 ft | 20 kts | 111° |
| 2026-05-05 21:07 | 37.61734 | -122.37564 | 19 ft | 20 kts | 112° |
| 2026-05-05 21:07 | 37.61670 | -122.37396 | 19 ft | 23 kts | 117° |
| 2026-05-05 21:07 | 37.61594 | -122.37214 | 19 ft | 21 kts | 118° |
| 2026-05-05 21:08 | 37.61533 | -122.37068 | 19 ft | 15 kts | 117° |
| 2026-05-05 21:08 | 37.61480 | -122.36941 | 19 ft | 18 kts | 118° |
| 2026-05-05 21:08 | 37.61395 | -122.36823 | 19 ft | 19 kts | 130° |
| 2026-05-05 21:08 | 37.61347 | -122.36736 | 19 ft | 5 kts | 122° |
| 2026-05-05 21:09 | 37.61321 | -122.36681 | 19 ft | 10 kts | 117° |
| 2026-05-05 21:09 | 37.61269 | -122.36555 | 20 ft | 21 kts | 117° |
| 2026-05-05 21:09 | 37.61195 | -122.36374 | 19 ft | 23 kts | 118° |
| 2026-05-05 21:09 | 37.61121 | -122.36182 | 19 ft | 21 kts | 110° |
| 2026-05-05 21:10 | 37.61156 | -122.36060 | 20 ft | 17 kts | 33° |
| 2026-05-05 21:10 | 37.61264 | -122.36059 | 20 ft | 15 kts | 309° |
| 2026-05-05 21:10 | 37.61394 | -122.36379 | 21 ft | 81 kts | 297° |
| 2026-05-05 21:10 | 37.61780 | -122.37289 | 30 ft | 149 kts | 297° |
| 2026-05-05 21:11 | 37.62340 | -122.38555 | 383 ft | 184 kts | 297° |
| 2026-05-05 21:11 | 37.63050 | -122.40093 | 838 ft | 216 kts | 299° |
| 2026-05-05 21:11 | 37.63765 | -122.41714 | 2018 ft | 208 kts | 297° |
| 2026-05-05 21:11 | 37.64458 | -122.43370 | 2735 ft | 226 kts | 298° |
| 2026-05-05 21:12 | 37.65210 | -122.45167 | 3527 ft | 236 kts | 299° |
| 2026-05-05 21:12 | 37.66000 | -122.47022 | 4416 ft | 241 kts | 300° |
| 2026-05-05 21:12 | 37.66780 | -122.48892 | 5458 ft | 242 kts | 294° |
| 2026-05-05 21:12 | 37.67091 | -122.50986 | 6396 ft | 250 kts | 269° |
| 2026-05-05 21:13 | 37.66571 | -122.53123 | 7191 ft | 265 kts | 240° |
| 2026-05-05 21:13 | 37.65246 | -122.54785 | 7968 ft | 278 kts | 211° |
| 2026-05-05 21:13 | 37.63391 | -122.55538 | 8763 ft | 286 kts | 182° |
| 2026-05-05 21:13 | 37.61426 | -122.55174 | 9556 ft | 290 kts | 155° |
| 2026-05-05 21:14 | 37.59567 | -122.54003 | 9999 ft | 309 kts | 145° |
| 2026-05-05 21:14 | 37.57669 | -122.52587 | 10457 ft | 328 kts | 146° |
| 2026-05-05 21:14 | 37.55590 | -122.51165 | 10754 ft | 352 kts | 150° |
| 2026-05-05 21:14 | 37.53361 | -122.49816 | 11289 ft | 366 kts | 152° |
| 2026-05-05 21:15 | 37.51035 | -122.48486 | 12116 ft | 368 kts | 150° |
| 2026-05-05 21:15 | 37.48853 | -122.46726 | 12939 ft | 368 kts | 137° |
| 2026-05-05 21:15 | 37.47045 | -122.44450 | 13716 ft | 368 kts | 125° |
| 2026-05-05 21:15 | 37.45456 | -122.41959 | 14433 ft | 372 kts | 124° |
| 2026-05-05 21:16 | 37.43831 | -122.39417 | 15182 ft | 374 kts | 124° |
| 2026-05-05 21:16 | 37.42188 | -122.36859 | 15865 ft | 379 kts | 124° |
| 2026-05-05 21:16 | 37.40518 | -122.34267 | 16575 ft | 383 kts | 124° |
| 2026-05-05 21:16 | 37.38837 | -122.31662 | 17354 ft | 384 kts | 124° |
| 2026-05-05 21:17 | 37.37140 | -122.29038 | 18061 ft | 389 kts | 124° |
| 2026-05-05 21:17 | 37.35429 | -122.26388 | 18675 ft | 392 kts | 124° |
| 2026-05-05 21:17 | 37.33704 | -122.23717 | 19286 ft | 395 kts | 124° |
| 2026-05-05 21:17 | 37.31969 | -122.21034 | 19887 ft | 397 kts | 124° |
| 2026-05-05 21:18 | 37.30218 | -122.18327 | 20455 ft | 400 kts | 124° |
| 2026-05-05 21:18 | 37.28460 | -122.15603 | 20960 ft | 404 kts | 124° |
| 2026-05-05 21:18 | 37.26679 | -122.12853 | 21528 ft | 407 kts | 124° |
| 2026-05-05 21:18 | 37.24885 | -122.10094 | 22133 ft | 410 kts | 124° |
| 2026-05-05 21:19 | 37.23072 | -122.07308 | 22745 ft | 413 kts | 124° |
| 2026-05-05 21:19 | 37.21250 | -122.04509 | 23389 ft | 415 kts | 124° |
| 2026-05-05 21:19 | 37.19419 | -122.01695 | 23920 ft | 418 kts | 124° |
| 2026-05-05 21:19 | 37.17578 | -121.98870 | 24478 ft | 418 kts | 124° |
| 2026-05-05 21:20 | 37.15738 | -121.96049 | 25064 ft | 418 kts | 123° |
| 2026-05-05 21:20 | 37.13892 | -121.93221 | 25552 ft | 421 kts | 123° |
| 2026-05-05 21:20 | 37.12037 | -121.90380 | 26075 ft | 420 kts | 123° |
| 2026-05-05 21:20 | 37.10186 | -121.87546 | 26555 ft | 422 kts | 123° |
| 2026-05-05 21:21 | 37.08319 | -121.84691 | 26975 ft | 424 kts | 122° |
| 2026-05-05 21:21 | 37.06447 | -121.81833 | 27513 ft | 424 kts | 122° |
| 2026-05-05 21:21 | 37.04579 | -121.78982 | 28000 ft | 424 kts | 122° |
| 2026-05-05 21:21 | 37.02708 | -121.76132 | 28442 ft | 424 kts | 122° |
| 2026-05-05 21:22 | 37.00828 | -121.73268 | 28804 ft | 427 kts | 121° |
| 2026-05-05 21:22 | 36.98939 | -121.70387 | 29134 ft | 429 kts | 121° |
| 2026-05-05 21:22 | 36.97044 | -121.67500 | 29549 ft | 430 kts | 121° |
| 2026-05-05 21:22 | 36.95143 | -121.64608 | 29969 ft | 431 kts | 121° |
| 2026-05-05 21:23 | 36.93235 | -121.61709 | 30336 ft | 433 kts | 121° |
| 2026-05-05 21:23 | 36.91319 | -121.58799 | 30637 ft | 435 kts | 121° |
| 2026-05-05 21:23 | 36.89392 | -121.55875 | 30916 ft | 437 kts | 121° |
| 2026-05-05 21:23 | 36.87455 | -121.52938 | 31211 ft | 439 kts | 121° |
| 2026-05-05 21:24 | 36.85534 | -121.50029 | 31525 ft | 441 kts | 121° |
| 2026-05-05 21:24 | 36.83579 | -121.47074 | 31888 ft | 441 kts | 121° |
| 2026-05-05 21:24 | 36.81628 | -121.44128 | 32299 ft | 440 kts | 121° |
| 2026-05-05 21:24 | 36.79681 | -121.41190 | 32692 ft | 439 kts | 121° |
| 2026-05-05 21:25 | 36.77711 | -121.38218 | 33089 ft | 438 kts | 121° |
| 2026-05-05 21:25 | 36.75798 | -121.35334 | 33468 ft | 437 kts | 121° |
| 2026-05-05 21:25 | 36.73857 | -121.32411 | 33823 ft | 437 kts | 121° |
| 2026-05-05 21:25 | 36.71922 | -121.29497 | 34170 ft | 437 kts | 121° |
| 2026-05-05 21:26 | 36.69983 | -121.26579 | 34405 ft | 437 kts | 121° |
| 2026-05-05 21:26 | 36.68039 | -121.23656 | 34639 ft | 438 kts | 121° |
| 2026-05-05 21:26 | 36.66098 | -121.20739 | 34852 ft | 438 kts | 121° |
| 2026-05-05 21:26 | 36.64150 | -121.17817 | 35094 ft | 438 kts | 122° |
| 2026-05-05 21:27 | 36.62205 | -121.14899 | 35328 ft | 439 kts | 122° |
| 2026-05-05 21:27 | 36.60252 | -121.11972 | 35555 ft | 440 kts | 122° |
| 2026-05-05 21:27 | 36.58299 | -121.09049 | 35764 ft | 440 kts | 122° |
| 2026-05-05 21:27 | 36.56339 | -121.06116 | 35922 ft | 443 kts | 122° |
| 2026-05-05 21:28 | 36.54365 | -121.03164 | 36086 ft | 444 kts | 122° |
| 2026-05-05 21:28 | 36.52388 | -121.00214 | 36288 ft | 444 kts | 123° |
| 2026-05-05 21:28 | 36.50407 | -120.97258 | 36473 ft | 445 kts | 123° |
| 2026-05-05 21:28 | 36.48423 | -120.94301 | 36673 ft | 446 kts | 123° |
| 2026-05-05 21:29 | 36.46441 | -120.91336 | 36880 ft | 446 kts | 123° |
| 2026-05-05 21:29 | 36.44459 | -120.88363 | 37060 ft | 447 kts | 123° |
| 2026-05-05 21:29 | 36.42475 | -120.85387 | 37261 ft | 448 kts | 123° |
| 2026-05-05 21:29 | 36.40488 | -120.82409 | 37432 ft | 448 kts | 123° |
| 2026-05-05 21:30 | 36.38485 | -120.79411 | 37583 ft | 449 kts | 123° |
| 2026-05-05 21:30 | 36.36501 | -120.76445 | 37742 ft | 449 kts | 123° |
| 2026-05-05 21:30 | 36.34500 | -120.73459 | 37882 ft | 450 kts | 123° |
| 2026-05-05 21:30 | 36.32499 | -120.70474 | 37999 ft | 451 kts | 124° |
| 2026-05-05 21:31 | 36.30496 | -120.67487 | 38137 ft | 451 kts | 124° |
| 2026-05-05 21:31 | 36.28486 | -120.64496 | 38269 ft | 451 kts | 124° |
| 2026-05-05 21:31 | 36.24445 | -120.58483 | 38398 ft | 455 kts | 124° |
| 2026-05-05 21:32 | 36.22417 | -120.55473 | 38556 ft | 456 kts | 124° |
| 2026-05-05 21:32 | 36.20386 | -120.52459 | 38676 ft | 456 kts | 125° |
| 2026-05-05 21:32 | 36.18347 | -120.49439 | 38783 ft | 457 kts | 125° |
| 2026-05-05 21:32 | 36.16309 | -120.46422 | 38894 ft | 457 kts | 125° |
| 2026-05-05 21:33 | 36.14269 | -120.43403 | 39009 ft | 457 kts | 125° |
| 2026-05-05 21:33 | 36.12229 | -120.40387 | 39059 ft | 458 kts | 126° |
| 2026-05-05 21:33 | 36.08149 | -120.34363 | 39059 ft | 453 kts | 126° |
| 2026-05-05 21:34 | 36.04094 | -120.28388 | 39052 ft | 455 kts | 126° |
| 2026-05-05 21:34 | 36.00022 | -120.22396 | 39051 ft | 455 kts | 126° |
| 2026-05-05 21:35 | 35.95975 | -120.16449 | 39050 ft | 457 kts | 126° |
| 2026-05-05 21:35 | 35.91859 | -120.10416 | 39067 ft | 460 kts | 126° |
| 2026-05-05 21:36 | 35.87762 | -120.04431 | 39044 ft | 455 kts | 126° |
| 2026-05-05 21:36 | 35.83668 | -119.98455 | 39047 ft | 457 kts | 126° |
| 2026-05-05 21:37 | 35.79500 | -119.92521 | 39046 ft | 461 kts | 127° |
| 2026-05-05 21:37 | 35.75291 | -119.86558 | 39045 ft | 461 kts | 127° |
| 2026-05-05 21:38 | 35.71776 | -119.81575 | 39049 ft | 460 kts | 127° |
| 2026-05-05 21:38 | 35.67574 | -119.75620 | 39035 ft | 461 kts | 127° |
| 2026-05-05 21:39 | 35.63365 | -119.69662 | 39019 ft | 462 kts | 127° |
| 2026-05-05 21:39 | 35.59148 | -119.63707 | 39020 ft | 462 kts | 127° |
| 2026-05-05 21:40 | 35.54953 | -119.57792 | 39025 ft | 463 kts | 127° |
| 2026-05-05 21:40 | 35.50719 | -119.51833 | 39029 ft | 464 kts | 128° |
| 2026-05-05 21:41 | 35.46455 | -119.45839 | 39045 ft | 469 kts | 128° |
| 2026-05-05 21:41 | 35.42156 | -119.39812 | 39043 ft | 469 kts | 128° |
| 2026-05-05 21:42 | 35.37865 | -119.33807 | 39042 ft | 469 kts | 128° |
| 2026-05-05 21:42 | 35.33566 | -119.27798 | 39042 ft | 469 kts | 129° |
| 2026-05-05 21:43 | 35.29266 | -119.21796 | 39049 ft | 469 kts | 129° |
| 2026-05-05 21:43 | 35.24963 | -119.15806 | 39050 ft | 469 kts | 129° |
| 2026-05-05 21:44 | 35.20660 | -119.09823 | 39058 ft | 468 kts | 129° |
| 2026-05-05 21:44 | 35.16353 | -119.03842 | 39047 ft | 469 kts | 130° |
| 2026-05-05 21:45 | 35.12043 | -118.97868 | 39053 ft | 469 kts | 130° |
| 2026-05-05 21:45 | 35.07723 | -118.91895 | 39057 ft | 469 kts | 130° |
| 2026-05-05 21:46 | 35.03401 | -118.85929 | 39058 ft | 469 kts | 130° |
| 2026-05-05 21:46 | 34.99068 | -118.79954 | 39053 ft | 472 kts | 131° |
| 2026-05-05 21:47 | 34.94685 | -118.73925 | 39050 ft | 478 kts | 131° |
| 2026-05-05 21:47 | 34.90276 | -118.67871 | 39052 ft | 478 kts | 131° |
| 2026-05-05 21:48 | 34.85892 | -118.61859 | 39033 ft | 474 kts | 131° |
| 2026-05-05 21:48 | 34.81498 | -118.55846 | 39010 ft | 477 kts | 131° |
| 2026-05-05 21:49 | 34.77081 | -118.49811 | 39000 ft | 476 kts | 131° |
| 2026-05-05 21:49 | 34.72691 | -118.43824 | 38996 ft | 472 kts | 131° |
| 2026-05-05 21:50 | 34.68296 | -118.37841 | 38990 ft | 476 kts | 132° |
| 2026-05-05 21:50 | 34.63873 | -118.31827 | 38996 ft | 475 kts | 132° |
| 2026-05-05 21:51 | 34.59471 | -118.25856 | 38992 ft | 475 kts | 132° |
| 2026-05-05 21:51 | 34.55062 | -118.19884 | 38991 ft | 476 kts | 132° |
| 2026-05-05 21:52 | 34.48420 | -118.10906 | 38992 ft | 476 kts | 133° |
| 2026-05-05 21:53 | 34.44230 | -118.04704 | 38967 ft | 476 kts | 124° |
| 2026-05-05 21:53 | 34.41176 | -117.97602 | 38978 ft | 476 kts | 111° |
| 2026-05-05 21:54 | 34.39225 | -117.89944 | 38988 ft | 477 kts | 106° |
| 2026-05-05 21:54 | 34.37384 | -117.82190 | 38987 ft | 479 kts | 106° |
| 2026-05-05 21:55 | 34.35530 | -117.74446 | 39002 ft | 479 kts | 107° |
| 2026-05-05 21:55 | 34.33664 | -117.66695 | 38999 ft | 480 kts | 107° |
| 2026-05-05 21:56 | 34.31808 | -117.59003 | 39006 ft | 479 kts | 107° |
| 2026-05-05 21:56 | 34.29934 | -117.51263 | 39002 ft | 480 kts | 107° |
| 2026-05-05 21:57 | 34.28057 | -117.43527 | 38997 ft | 479 kts | 107° |
| 2026-05-05 21:57 | 34.26174 | -117.35795 | 39013 ft | 479 kts | 107° |
| 2026-05-05 21:58 | 34.24288 | -117.28071 | 39002 ft | 479 kts | 108° |
| 2026-05-05 21:58 | 34.22396 | -117.20353 | 39008 ft | 479 kts | 108° |
| 2026-05-05 21:59 | 34.20498 | -117.12626 | 38960 ft | 480 kts | 108° |
| 2026-05-05 21:59 | 34.18594 | -117.04899 | 38966 ft | 480 kts | 108° |
| 2026-05-05 22:00 | 34.16683 | -116.97170 | 38954 ft | 480 kts | 108° |
| 2026-05-05 22:00 | 34.14767 | -116.89446 | 38957 ft | 481 kts | 108° |
| 2026-05-05 22:01 | 34.12845 | -116.81711 | 38954 ft | 483 kts | 109° |
| 2026-05-05 22:01 | 34.10898 | -116.73908 | 38942 ft | 487 kts | 109° |
| 2026-05-05 22:02 | 34.08942 | -116.66092 | 38946 ft | 486 kts | 109° |
| 2026-05-05 22:02 | 34.06982 | -116.58285 | 38933 ft | 486 kts | 109° |